Time;durP1;ratioP1;P1;durP2;ratioP2;P2;SDS_P1;SDS_P2;PMS_P1;PMS_P2;Temp;Humidity;BMP_temperature;BMP_pressure;BME280_temperature;BME280_humidity;BME280_pressure;Samples;Min_cycle;Max_cycle;Signal;HPM_P1;HPM_P2
2022/04/03 00:01:44;;;;;;;;;;;1.90;99.90;;;;;;5000021;28;20078;-80
2022/04/03 00:04:10;;;;;;;30.40;20.25;;;1.80;99.90;;;;;;4999814;28;19901;-80
2022/04/03 00:06:35;;;;;;;;;;;1.90;99.90;;;;;;4999621;28;20011;-80
2022/04/03 00:09:02;;;;;;;28.77;19.52;;;1.80;99.90;;;;;;4999876;28;19900;-83
2022/04/03 00:11:28;;;;;;;28.73;20.13;;;1.80;99.90;;;;;;4999014;28;20094;-81
2022/04/03 00:13:55;;;;;;;31.70;22.02;;;1.80;99.90;;;;;;4999696;28;20007;-79
2022/04/03 00:16:23;;;;;;;29.92;21.50;;;1.80;99.90;;;;;;4982812;28;20014;-80
2022/04/03 00:18:49;;;;;;;35.67;24.35;;;1.80;99.90;;;;;;4999323;28;20011;-81
2022/04/03 00:21:15;;;;;;;;;;;1.80;99.90;;;;;;4999085;28;20049;-80
2022/04/03 00:23:41;;;;;;;29.20;20.27;;;1.70;99.90;;;;;;4999144;28;19917;-80
2022/04/03 00:26:07;;;;;;;;;;;1.70;99.90;;;;;;4999206;28;20019;-80
2022/04/03 00:28:33;;;;;;;32.72;21.05;;;1.60;99.90;;;;;;4998742;28;19906;-81
2022/04/03 00:30:59;;;;;;;;;;;1.50;99.90;;;;;;4999237;28;20022;-81
2022/04/03 00:33:25;;;;;;;31.08;19.70;;;1.50;99.90;;;;;;4999722;28;19894;-82
2022/04/03 00:35:51;;;;;;;;;;;1.50;99.90;;;;;;4999978;28;20034;-81
2022/04/03 00:38:17;;;;;;;29.60;18.80;;;1.50;99.90;;;;;;4998675;28;19917;-80
2022/04/03 00:40:46;;;;;;;27.90;19.35;;;1.50;99.90;;;;;;4999318;28;20023;-82
2022/04/03 00:43:13;;;;;;;27.70;18.15;;;1.60;99.90;;;;;;4982813;28;20054;-82
2022/04/03 00:45:44;;;;;;;24.58;17.23;;;1.50;99.90;;;;;;4999575;28;20011;-82
2022/04/03 00:48:10;;;;;;;24.58;17.27;;;1.50;99.90;;;;;;5010211;28;20035;-80
2022/04/03 00:50:37;;;;;;;;;;;1.50;99.90;;;;;;5018420;28;20021;-80
2022/04/03 00:53:03;;;;;;;24.08;15.95;;;1.50;99.90;;;;;;5018652;28;19929;-82
2022/04/03 00:55:29;;;;;;;24.58;15.95;;;1.50;99.90;;;;;;5018509;28;20030;-81
2022/04/03 00:57:56;;;;;;;;;;;1.50;99.90;;;;;;5019221;28;20019;-82
2022/04/03 01:00:21;;;;;;;24.70;16.58;;;1.40;99.90;;;;;;5021996;28;19937;-80
2022/04/03 01:02:47;;;;;;;;;;;1.60;99.90;;;;;;5022304;28;20015;-83
2022/04/03 01:05:14;;;;;;;20.30;13.88;;;1.60;99.90;;;;;;5021953;28;19894;-81
2022/04/03 01:07:40;;;;;;;23.48;15.93;;;1.50;99.90;;;;;;5021640;28;20121;-80
2022/04/03 01:10:06;;;;;;;;;;;1.50;99.90;;;;;;5022119;28;20031;-84
2022/04/03 01:12:33;;;;;;;22.20;15.98;;;1.40;99.90;;;;;;5022492;28;19906;-81
2022/04/03 01:14:58;;;;;;;;;;;1.40;99.90;;;;;;5022184;28;20058;-79
2022/04/03 01:17:24;;;;;;;24.70;17.38;;;1.50;99.90;;;;;;5021753;28;19894;-80
2022/04/03 01:19:50;;;;;;;;;;;1.50;99.90;;;;;;5021988;28;20025;-82
2022/04/03 01:22:15;;;;;;;24.73;16.50;;;1.50;99.90;;;;;;5019921;28;19905;-79
2022/04/03 01:24:44;;;;;;;;;;;1.50;99.90;;;;;;5021455;28;20018;-80
2022/04/03 01:27:10;;;;;;;23.15;15.10;;;1.50;99.90;;;;;;5021773;28;19917;-79
2022/04/03 01:29:37;;;;;;;24.42;17.40;;;1.40;99.90;;;;;;5021472;28;20007;-79
2022/04/03 01:32:03;;;;;;;24.83;17.60;;;1.50;99.90;;;;;;5017847;28;20045;-79
2022/04/03 01:34:30;;;;;;;25.13;16.60;;;1.50;99.90;;;;;;5018993;28;20030;-80
2022/04/03 01:36:58;;;;;;;25.73;17.73;;;1.50;99.90;;;;;;5022138;28;20026;-78
2022/04/03 01:39:25;;;;;;;28.42;18.70;;;1.50;99.90;;;;;;5029067;28;20054;-79
2022/04/03 01:41:51;;;;;;;27.33;18.70;;;1.50;99.90;;;;;;5032015;28;20031;-79
2022/04/03 01:44:16;;;;;;;;;;;1.50;99.90;;;;;;5023929;28;20057;-79
2022/04/03 01:46:43;;;;;;;23.23;16.05;;;1.50;99.90;;;;;;5024116;28;19923;-79
2022/04/03 01:49:09;;;;;;;22.60;15.57;;;1.50;99.90;;;;;;5026288;28;20531;-79
2022/04/03 01:51:35;;;;;;;;;;;1.50;99.90;;;;;;5019739;28;20035;-79
2022/04/03 01:54:01;;;;;;;24.73;17.05;;;1.50;99.90;;;;;;5029032;28;19909;-80
2022/04/03 01:56:27;;;;;;;25.48;17.73;;;1.50;99.90;;;;;;5022336;28;20018;-79
2022/04/03 01:58:53;;;;;;;;;;;1.50;99.90;;;;;;5000044;28;20042;-79
2022/04/03 02:01:19;;;;;;;23.70;16.40;;;1.50;99.90;;;;;;4994966;28;19922;-78
2022/04/03 02:03:46;;;;;;;;;;;1.50;99.90;;;;;;4993003;28;20030;-79
2022/04/03 02:06:13;;;;;;;23.10;15.75;;;1.50;99.90;;;;;;5004813;28;19945;-80
2022/04/03 02:08:45;;;;;;;21.40;15.23;;;1.50;99.90;;;;;;5012003;28;20400;-79
2022/04/03 02:11:11;;;;;;;20.58;14.52;;;1.40;99.90;;;;;;4995847;28;20058;-79
2022/04/03 02:13:39;;;;;;;;;;;1.40;99.90;;;;;;5005603;28;20034;-79
2022/04/03 02:16:05;;;;;;;16.70;12.05;;;1.30;99.90;;;;;;5006357;28;20478;-80
2022/04/03 02:18:31;;;;;;;;;;;1.40;99.90;;;;;;5002482;28;20090;-80
2022/04/03 02:20:57;;;;;;;19.27;12.98;;;1.40;99.90;;;;;;5005340;28;19906;-79
2022/04/03 02:23:23;;;;;;;19.23;12.90;;;1.40;99.90;;;;;;5005030;28;20035;-79
2022/04/03 02:25:50;;;;;;;;;;;1.50;99.90;;;;;;5012691;28;20098;-77
2022/04/03 02:28:17;;;;;;;21.67;13.65;;;1.40;99.90;;;;;;5022049;28;20003;-79
2022/04/03 02:30:43;;;;;;;18.80;13.05;;;1.40;99.90;;;;;;5019576;28;20050;-79
2022/04/03 02:33:09;;;;;;;21.00;14.70;;;1.40;99.90;;;;;;5020243;28;19999;-81
2022/04/03 02:35:35;;;;;;;;;;;1.50;99.90;;;;;;5020636;28;20041;-79
2022/04/03 02:38:01;;;;;;;22.85;14.80;;;1.40;99.90;;;;;;5020310;28;19942;-80
2022/04/03 02:40:27;;;;;;;;;;;1.40;99.90;;;;;;5019847;28;20054;-82
2022/04/03 02:42:52;;;;;;;23.15;15.80;;;1.50;99.90;;;;;;5018787;28;19958;-81
2022/04/03 02:45:19;;;;;;;;;;;1.40;99.90;;;;;;5020870;28;20062;-79
2022/04/03 02:47:53;;;;;;;24.65;15.55;;;1.40;99.90;;;;;;5019895;28;19906;-80
2022/04/03 02:50:20;;;;;;;20.73;14.85;;;1.40;99.90;;;;;;5018986;28;20018;-81
2022/04/03 02:52:49;;;;;;;17.65;13.25;;;1.40;99.90;;;;;;5020098;28;20010;-77
2022/04/03 02:55:19;;;;;;;18.75;13.60;;;1.40;99.90;;;;;;5019757;28;20018;-79
2022/04/03 02:57:45;;;;;;;18.25;12.95;;;1.40;99.90;;;;;;5019097;28;20029;-81
2022/04/03 03:00:14;;;;;;;;;;;1.40;99.90;;;;;;5019771;28;20134;-81
2022/04/03 03:02:41;;;;;;;17.92;12.73;;;1.40;99.90;;;;;;5020048;28;19953;-78
2022/04/03 03:05:08;;;;;;;17.30;12.63;;;1.50;99.90;;;;;;5019368;28;20010;-79
2022/04/03 03:07:39;;;;;;;15.35;11.90;;;1.60;99.90;;;;;;5019125;28;20037;-79
2022/04/03 03:10:06;;;;;;;15.80;12.15;;;1.50;99.90;;;;;;5019854;28;20026;-78
2022/04/03 03:12:32;;;;;;;17.42;12.68;;;1.50;99.90;;;;;;5019410;28;20010;-82
2022/04/03 03:14:57;;;;;;;;;;;1.40;99.90;;;;;;5002650;28;20034;-80
2022/04/03 03:17:24;;;;;;;18.75;12.25;;;1.50;99.90;;;;;;5019712;28;19894;-82
2022/04/03 03:19:49;;;;;;;;;;;1.50;99.90;;;;;;5019753;28;20033;-79
2022/04/03 03:22:15;;;;;;;16.75;10.23;;;1.50;99.90;;;;;;5018349;28;19893;-79
2022/04/03 03:24:41;;;;;;;;;;;1.60;99.90;;;;;;5017257;28;20081;-79
2022/04/03 03:27:07;;;;;;;12.93;9.60;;;1.60;99.90;;;;;;5018686;28;19925;-80
2022/04/03 03:29:33;;;;;;;14.30;10.98;;;1.60;99.90;;;;;;5019123;28;20025;-78
2022/04/03 03:31:59;;;;;;;;;;;1.50;99.90;;;;;;5019003;28;20022;-81
2022/04/03 03:34:25;;;;;;;14.30;8.77;;;1.60;99.90;;;;;;4999854;28;19894;-78
2022/04/03 03:36:50;;;;;;;;;;;1.60;99.90;;;;;;4999890;28;20023;-79
2022/04/03 03:39:16;;;;;;;13.75;10.52;;;1.60;99.90;;;;;;4999726;28;19906;-81
2022/04/03 03:41:43;;;;;;;14.82;10.57;;;1.60;99.90;;;;;;4999565;28;20082;-80
2022/04/03 03:44:10;;;;;;;13.63;9.20;;;1.50;99.90;;;;;;4999841;28;20018;-78
2022/04/03 03:46:42;;;;;;;10.63;7.22;;;1.40;99.90;;;;;;4999021;28;20077;-79
2022/04/03 03:49:08;;;;;;;12.30;8.10;;;1.60;99.90;;;;;;4999848;28;20039;-78
2022/04/03 03:51:35;;;;;;;11.27;7.70;;;1.60;99.90;;;;;;4999615;28;20027;-79
2022/04/03 04:41:12;;;;;;;10.13;6.80;;;1.90;99.90;;;;;;5591219;23;20060;-79
2022/04/03 04:43:38;;;;;;;10.05;6.35;;;1.90;99.90;;;;;;5003976;28;20046;-80
2022/04/03 04:46:04;;;;;;;;;;;1.90;99.90;;;;;;5004693;28;20013;-81
2022/04/03 04:48:30;;;;;;;10.02;6.75;;;2.00;99.90;;;;;;5020745;28;19933;-79
2022/04/03 04:50:58;;;;;;;11.43;6.72;;;2.00;99.90;;;;;;5020981;28;20073;-79
2022/04/03 04:53:23;;;;;;;13.40;7.25;;;2.00;99.90;;;;;;5022023;28;20042;-81
2022/04/03 04:55:49;;;;;;;;;;;2.00;99.90;;;;;;5022392;28;20026;-79
2022/04/03 04:58:15;;;;;;;9.68;6.68;;;2.00;99.90;;;;;;5034969;28;19917;-80
2022/04/03 05:00:41;;;;;;;8.90;5.93;;;2.00;99.90;;;;;;5013741;28;20109;-79
2022/04/03 05:03:07;;;;;;;;;;;2.10;99.90;;;;;;5021231;28;20018;-79
2022/04/03 05:05:33;;;;;;;9.68;6.95;;;2.10;99.90;;;;;;5021435;28;19917;-79
2022/04/03 05:08:00;;;;;;;9.45;6.70;;;2.10;99.90;;;;;;5021409;28;20073;-79
2022/04/03 05:10:26;;;;;;;11.73;6.65;;;2.10;99.90;;;;;;5021106;28;20030;-79
2022/04/03 05:12:55;;;;;;;9.18;6.10;;;2.10;99.90;;;;;;5015071;28;20010;-80
2022/04/03 05:15:21;;;;;;;9.60;6.43;;;2.20;99.90;;;;;;5021697;28;20038;-80
2022/04/03 05:17:47;;;;;;;;;;;2.10;99.90;;;;;;5020713;28;20042;-79
2022/04/03 05:20:14;;;;;;;9.77;6.65;;;2.10;99.90;;;;;;5020562;28;19909;-78
2022/04/03 05:22:41;;;;;;;10.27;6.97;;;2.20;99.90;;;;;;5013677;28;20030;-80
2022/04/03 05:25:11;;;;;;;8.95;6.28;;;2.10;99.90;;;;;;5021525;28;20030;-79
2022/04/03 05:27:40;;;;;;;9.13;6.50;;;2.10;99.90;;;;;;5013357;28;20010;-78
2022/04/03 05:30:07;;;;;;;10.75;6.90;;;2.20;99.90;;;;;;5021466;28;20015;-80
2022/04/03 05:32:33;;;;;;;11.18;6.22;;;2.20;99.90;;;;;;5021419;28;20030;-78
2022/04/03 05:35:00;;;;;;;9.65;6.65;;;2.20;99.90;;;;;;5021183;28;20045;-79
2022/04/03 05:37:26;;;;;;;11.82;7.97;;;2.10;99.90;;;;;;5020916;28;20045;-80
2022/04/03 05:39:52;;;;;;;14.88;8.68;;;2.30;99.90;;;;;;5015008;28;20013;-79
2022/04/03 05:42:19;;;;;;;12.32;8.32;;;2.30;99.90;;;;;;5020948;28;20073;-79
2022/04/03 05:44:45;;;;;;;18.80;12.85;;;2.40;99.90;;;;;;5014481;28;20014;-80
2022/04/03 05:47:11;;;;;;;;;;;2.40;99.90;;;;;;5021407;28;20021;-78
2022/04/03 05:49:37;;;;;;;16.27;9.05;;;2.40;99.90;;;;;;5020730;28;19917;-78
2022/04/03 05:59:45;;;;;;;18.20;10.07;;;2.70;99.90;;;;;;5073472;23;20054;-79
2022/04/03 06:02:12;;;;;;;;;;;2.80;99.90;;;;;;5040154;28;20124;-79
2022/04/03 06:04:38;;;;;;;;;;;2.90;99.90;;;;;;5040915;28;19894;-79
2022/04/03 06:07:04;;;;;;;13.52;8.60;;;2.90;99.90;;;;;;5023364;28;19931;-80
2022/04/03 06:09:29;;;;;;;;;;;2.90;99.90;;;;;;5041099;28;20037;-79
2022/04/03 06:11:55;;;;;;;11.27;6.97;;;2.90;99.90;;;;;;5040230;28;19916;-79
2022/04/03 06:14:21;;;;;;;;;;;3.00;99.90;;;;;;5040801;28;20060;-80
2022/04/03 06:16:46;;;;;;;10.93;7.13;;;3.00;99.90;;;;;;5039965;28;19929;-79
2022/04/03 06:19:12;;;;;;;;;;;3.00;99.90;;;;;;5040971;28;20037;-80
2022/04/03 06:21:38;;;;;;;12.05;7.82;;;3.00;99.90;;;;;;5040455;28;19932;-82
2022/04/03 06:24:04;;;;;;;;;;;3.20;99.90;;;;;;5040403;28;20021;-80
2022/04/03 06:26:30;;;;;;;11.48;7.90;;;3.10;99.90;;;;;;5023460;28;19893;-80
2022/04/03 06:28:55;;;;;;;;;;;3.30;99.90;;;;;;5039929;28;20046;-79
2022/04/03 06:31:21;;;;;;;14.48;8.38;;;3.40;99.90;;;;;;5023088;28;19893;-78
2022/04/03 06:33:47;;;;;;;;;;;3.50;99.90;;;;;;5039983;28;20012;-79
2022/04/03 06:36:13;;;;;;;10.55;7.00;;;3.50;99.90;;;;;;5040456;28;19901;-79
2022/04/03 06:38:38;;;;;;;;;;;3.60;99.90;;;;;;5023437;28;20030;-78
2022/04/03 06:41:04;;;;;;;11.10;6.75;;;3.50;99.90;;;;;;5039894;28;19921;-78
2022/04/03 06:43:30;;;;;;;;;;;3.60;99.90;;;;;;5040087;28;20073;-79
2022/04/03 06:45:57;;;;;;;12.18;7.90;;;3.70;99.90;;;;;;5023324;28;19924;-79
2022/04/03 06:48:24;;;;;;;10.75;6.65;;;3.80;99.90;;;;;;5040142;28;20002;-79
2022/04/03 06:50:50;;;;;;;11.77;7.25;;;3.80;99.90;;;;;;5040279;28;20049;-79
2022/04/03 07:24:50;;;;;;;8.85;5.90;;;5.30;99.90;;;;;;5032231;23;20042;-81
2022/04/03 07:27:16;;;;;;;;;;;5.30;99.90;;;;;;5003308;28;20014;-80
2022/04/03 07:29:42;;;;;;;8.77;6.50;;;5.30;99.90;;;;;;5019394;28;19894;-82
2022/04/03 07:32:07;;;;;;;;;;;5.30;99.90;;;;;;5019346;28;20089;-81
2022/04/03 07:34:33;;;;;;;8.52;6.10;;;5.40;99.90;;;;;;5001868;28;19893;-78
2022/04/03 07:36:59;;;;;;;;;;;5.40;99.90;;;;;;5018642;28;20042;-81
2022/04/03 07:39:28;;;;;;;8.15;5.40;;;5.50;99.90;;;;;;5018557;28;19921;-82
2022/04/03 07:41:54;;;;;;;7.90;5.68;;;5.50;99.90;;;;;;5002801;28;20068;-80
2022/04/03 07:44:20;;;;;;;;;;;5.70;99.90;;;;;;5019516;28;20015;-80
2022/04/03 07:46:46;;;;;;;8.40;6.07;;;5.60;99.90;;;;;;5002563;28;19909;-79
2022/04/03 07:49:11;;;;;;;;;;;5.80;99.90;;;;;;5003106;28;20038;-81
2022/04/03 07:51:37;;;;;;;13.63;9.48;;;5.60;99.90;;;;;;5019028;28;19976;-81
2022/04/03 07:54:04;;;;;;;8.57;6.28;;;5.70;99.90;;;;;;5019072;28;20042;-81
2022/04/03 07:56:30;;;;;;;9.05;7.22;;;5.70;99.90;;;;;;5002373;28;20019;-80
2022/04/03 07:58:56;;;;;;;;;;;5.90;99.90;;;;;;5019530;28;20024;-80
2022/04/03 08:01:22;;;;;;;9.05;6.88;;;6.00;99.90;;;;;;5019100;28;19902;-80
2022/04/03 08:03:47;;;;;;;;;;;6.20;99.90;;;;;;5019417;28;20065;-79
2022/04/03 08:06:13;;;;;;;7.90;6.15;;;6.50;99.90;;;;;;5018837;28;19906;-80
2022/04/03 08:08:39;;;;;;;;;;;6.50;99.90;;;;;;5020554;28;20020;-80
2022/04/03 08:11:05;;;;;;;6.70;5.32;;;6.80;99.90;;;;;;5023643;28;19957;-78
2022/04/03 08:13:30;;;;;;;;;;;7.20;99.90;;;;;;5022942;28;20037;-78
2022/04/03 08:15:56;;;;;;;6.82;4.82;;;7.60;99.90;;;;;;5023551;28;19894;-79
2022/04/03 08:18:22;;;;;;;;;;;7.90;99.90;;;;;;5023007;28;20022;-80
2022/04/03 08:20:48;;;;;;;30.23;17.27;;;8.20;99.90;;;;;;5023439;28;19932;-79
2022/04/03 08:23:14;;;;;;;;;;;8.30;99.90;;;;;;5023429;28;20058;-78
2022/04/03 08:25:39;;;;;;;9.77;6.28;;;8.20;99.90;;;;;;5022601;28;19893;-78
2022/04/03 08:28:07;;;;;;;;;;;8.00;99.90;;;;;;5023570;28;20014;-80
2022/04/03 08:30:34;;;;;;;;;;;8.00;99.90;;;;;;5023652;28;19921;-79
2022/04/03 08:33:00;;;;;;;;;;;7.90;99.90;;;;;;5022596;28;19893;-80
2022/04/03 08:35:28;;;;;;;5.20;3.37;;;7.70;99.90;;;;;;5022313;28;19893;-78
2022/04/03 08:37:55;;;;;;;7.22;3.92;;;7.20;99.90;;;;;;5020706;28;20034;-81
2022/04/03 08:40:22;;;;;;;4.72;3.63;;;6.80;99.90;;;;;;5019524;28;20086;-81
2022/04/03 08:42:50;;;;;;;5.00;3.75;;;6.70;99.90;;;;;;5019594;28;20031;-80
2022/04/03 08:45:16;;;;;;;5.00;4.10;;;6.80;99.90;;;;;;5002643;28;20022;-80
2022/04/03 08:47:43;;;;;;;;;;;6.90;99.90;;;;;;5020159;28;20006;-80
2022/04/03 08:50:10;;;;;;;5.57;3.40;;;7.10;99.90;;;;;;5021817;28;19894;-79
2022/04/03 09:13:28;;;;;;;6.28;3.33;;;8.60;99.90;;;;;;5346773;23;20052;-78
2022/04/03 09:15:54;;;;;;;;;;;8.80;99.90;;;;;;5065070;28;20047;-76
2022/04/03 09:18:22;;;;;;;5.15;3.40;;;8.90;99.90;;;;;;5081437;28;19912;-81
2022/04/03 09:20:48;;;;;;;6.53;3.15;;;9.10;99.90;;;;;;5063973;28;20056;-79
2022/04/03 09:23:17;;;;;;;;;;;9.40;99.90;;;;;;5064735;28;20005;-79
2022/04/03 09:25:43;;;;;;;6.68;3.58;;;9.50;99.90;;;;;;5064247;28;19924;-80
2022/04/03 09:28:11;;;;;;;5.15;3.17;;;9.30;99.90;;;;;;5081282;28;20036;-78
2022/04/03 09:30:42;;;;;;;5.22;3.30;;;9.20;99.90;;;;;;5063804;28;20029;-79
2022/04/03 09:33:10;;;;;;;14.00;9.18;;;9.20;97.50;;;;;;5080767;28;20049;-79
2022/04/03 09:35:57;;;;;;;8.23;4.72;;;8.90;92.80;;;;;;5080371;28;20012;-79
2022/04/03 09:38:23;;;;;;;7.22;5.18;;;8.60;97.10;;;;;;5081223;28;20029;-79
2022/04/03 09:40:51;;;;;;;6.68;4.30;;;8.40;96.80;;;;;;5080843;28;20049;-80
2022/04/03 09:43:24;;;;;;;5.72;4.05;;;8.40;95.20;;;;;;5080854;28;20001;-79
2022/04/03 09:45:49;;;;;;;7.15;3.92;;;8.40;94.80;;;;;;5063410;28;20047;-80
2022/04/03 09:48:28;;;;;;;;;;;8.40;92.40;;;;;;5081171;28;20009;-79
2022/04/03 09:51:09;;;;;;;10.50;3.17;;;8.70;96.80;;;;;;5062831;28;19899;-80
2022/04/03 09:53:51;;;;;;;8.02;3.70;;;9.20;79.20;;;;;;5080418;28;20032;-81
2022/04/03 09:56:23;;;;;;;10.27;4.10;;;9.50;80.50;;;;;;5080278;28;20033;-80
2022/04/03 09:58:51;;;;;;;5.22;3.33;;;10.20;78.10;;;;;;5063187;28;20017;-77
2022/04/03 10:01:29;;;;;;;7.22;3.67;;;10.60;74.90;;;;;;5063553;28;20044;-77
2022/04/03 10:03:57;;;;;;;7.10;3.35;;;11.10;72.00;;;;;;5059844;28;20049;-81
2022/04/03 10:06:26;;;;;;;8.93;3.55;;;11.20;67.30;;;;;;5040005;28;20504;-86
2022/04/03 10:08:52;;;;;;;5.68;3.50;;;11.40;67.10;;;;;;5049450;28;20040;-91
2022/04/03 10:11:19;;;;;;;5.53;3.45;;;11.80;71.50;;;;;;5031320;28;20025;-88
2022/04/03 10:13:45;;;;;;;6.93;3.55;;;12.40;64.00;;;;;;5031412;28;20044;-89
2022/04/03 10:16:12;;;;;;;5.97;3.58;;;12.80;65.00;;;;;;5031097;28;20025;-88
2022/04/03 10:18:40;;;;;;;4.97;3.42;;;13.10;64.40;;;;;;5048839;28;20032;-90
2022/04/03 10:21:10;;;;;;;7.00;3.50;;;13.00;62.50;;;;;;5033400;28;20132;-81
2022/04/03 10:23:39;;;;;;;6.78;3.40;;;12.60;65.80;;;;;;5062667;28;20021;-78
2022/04/03 10:26:08;;;;;;;7.25;3.15;;;12.30;63.90;;;;;;5080608;28;20009;-78
2022/04/03 10:28:35;;;;;;;5.90;3.40;;;12.00;66.50;;;;;;5080242;28;20059;-78
2022/04/03 10:31:07;;;;;;;4.88;2.85;;;11.70;67.70;;;;;;5062388;28;20020;-77
2022/04/03 10:33:39;;;;;;;7.93;3.35;;;11.10;68.80;;;;;;5062841;28;20021;-79
2022/04/03 10:36:10;;;;;;;5.32;3.67;;;10.60;76.70;;;;;;5079882;28;20027;-78
2022/04/03 10:38:41;;;;;;;7.30;4.03;;;10.20;76.00;;;;;;5062677;28;20013;-78
2022/04/03 10:41:07;;;;;;;5.95;3.70;;;10.00;81.90;;;;;;5062663;28;20096;-79
2022/04/03 10:43:37;;;;;;;;;;;10.00;78.60;;;;;;5080125;28;20020;-79
2022/04/03 10:46:02;;;;;;;8.13;3.83;;;10.00;77.30;;;;;;5079551;28;19948;-79
2022/04/03 10:48:29;;;;;;;;;;;9.90;78.30;;;;;;5080077;28;20031;-79
2022/04/03 13:58:29;;;;;;;12.70;6.63;;;8.10;78.20;;;;;;5074896;23;20067;-80
2022/04/03 14:00:57;;;;;;;10.25;6.28;;;8.10;74.40;;;;;;5094434;28;20036;-79
2022/04/03 14:03:24;;;;;;;17.77;7.72;;;8.10;73.30;;;;;;5099048;28;20012;-80
2022/04/03 14:05:50;;;;;;;10.10;5.75;;;8.00;70.40;;;;;;5081464;28;20024;-80
2022/04/03 14:08:16;;;;;;;;;;;8.00;74.40;;;;;;5082682;28;20019;-79
2022/04/03 14:10:43;;;;;;;18.27;8.52;;;7.90;73.60;;;;;;5082426;28;19897;-78
2022/04/03 14:13:09;;;;;;;12.27;7.22;;;7.80;76.40;;;;;;5099616;28;20017;-79
2022/04/03 14:15:36;;;;;;;16.00;10.27;;;7.90;76.10;;;;;;5082567;28;20037;-79
2022/04/03 14:18:05;;;;;;;13.35;8.43;;;7.90;77.20;;;;;;5083322;28;20017;-80
2022/04/03 14:20:30;;;;;;;11.65;6.32;;;7.90;80.20;;;;;;5099977;28;20047;-77
2022/04/03 14:22:59;;;;;;;;;;;8.10;77.20;;;;;;5083103;28;20009;-78
2022/04/03 14:25:25;;;;;;;11.25;7.20;;;8.30;76.20;;;;;;5099863;28;19892;-80
2022/04/03 14:27:52;;;;;;;;;;;8.50;78.50;;;;;;5083578;28;20031;-78
2022/04/03 14:36:21;;;;;;;11.60;6.70;;;8.70;74.80;;;;;;5262914;22;20846;-81
2022/04/03 14:38:47;;;;;;;12.43;6.90;;;8.70;71.30;;;;;;5010975;28;20030;-79
2022/04/03 14:41:13;;;;;;;10.15;6.22;;;8.60;68.40;;;;;;4991005;28;20130;-83
2022/04/03 14:43:40;;;;;;;11.27;6.47;;;8.40;64.50;;;;;;4990343;28;20087;-80
2022/04/03 14:46:06;;;;;;;10.80;6.15;;;8.40;66.50;;;;;;5007673;28;20034;-80
2022/04/03 14:48:32;;;;;;;;;;;8.30;69.30;;;;;;4990212;28;20037;-80
2022/04/03 14:50:58;;;;;;;7.95;5.65;;;8.20;69.10;;;;;;5008111;28;19921;-82
2022/04/03 14:53:23;;;;;;;;;;;8.20;67.90;;;;;;4990699;28;20044;-80
2022/04/03 14:55:49;;;;;;;12.10;6.13;;;8.20;68.00;;;;;;4989888;28;19967;-79
2022/04/03 14:58:15;;;;;;;;;;;8.10;68.00;;;;;;4988912;28;20037;-78
2022/04/03 15:00:43;;;;;;;17.42;7.22;;;8.00;69.90;;;;;;4987419;28;20414;-79
2022/04/03 15:03:09;;;;;;;14.10;7.63;;;8.00;71.80;;;;;;4989164;28;20068;-80
2022/04/03 15:05:38;;;;;;;;;;;8.00;74.90;;;;;;4987237;28;20026;-78
2022/04/03 15:08:05;;;;;;;14.13;8.00;;;8.00;75.30;;;;;;4989262;28;19961;-79
2022/04/03 15:10:31;;;;;;;12.07;8.00;;;7.90;71.70;;;;;;5006469;28;20026;-78
2022/04/03 15:12:57;;;;;;;;;;;7.80;73.20;;;;;;5007371;28;20040;-79
2022/04/03 15:15:22;;;;;;;15.57;7.75;;;7.80;75.60;;;;;;4988735;28;19906;-79
2022/04/03 15:17:49;;;;;;;;;;;7.70;76.40;;;;;;5006443;28;20111;-78
2022/04/03 15:20:15;;;;;;;13.02;7.78;;;7.60;77.70;;;;;;4989027;28;19964;-77
2022/04/03 15:22:44;;;;;;;10.82;7.25;;;7.40;77.30;;;;;;5006350;28;20561;-78
2022/04/03 15:25:10;;;;;;;15.02;8.70;;;7.30;80.80;;;;;;4988952;28;20095;-78
2022/04/03 15:27:35;;;;;;;;;;;7.20;81.40;;;;;;5007682;28;20100;-76
2022/04/03 15:30:02;;;;;;;15.88;7.68;;;7.10;78.90;;;;;;5006199;28;20290;-77
2022/04/03 15:32:28;;;;;;;12.52;8.20;;;7.10;79.90;;;;;;5005915;28;20058;-77
2022/04/03 15:34:53;;;;;;;;;;;7.00;82.70;;;;;;5007138;28;20111;-78
2022/04/03 15:37:21;;;;;;;15.00;7.43;;;7.00;85.70;;;;;;5006556;28;20407;-78
2022/04/03 15:39:48;;;;;;;9.85;7.10;;;7.00;83.60;;;;;;4987540;28;20627;-78
2022/04/03 15:42:14;;;;;;;12.95;7.90;;;6.90;86.00;;;;;;5005707;28;20761;-79
2022/04/03 15:44:39;;;;;;;12.95;7.75;;;6.90;84.80;;;;;;4988639;28;20022;-79
2022/04/03 15:47:05;;;;;;;;;;;6.90;86.90;;;;;;4989121;28;20030;-78
2022/04/03 15:49:32;;;;;;;13.02;7.72;;;6.90;87.90;;;;;;4988899;28;19956;-77
2022/04/03 15:51:58;;;;;;;14.88;8.45;;;6.90;87.50;;;;;;5007376;28;20536;-80
2022/04/03 15:54:24;;;;;;;;;;;6.90;90.90;;;;;;5006537;28;20030;-79
2022/04/03 15:56:50;;;;;;;28.70;15.65;;;6.90;89.90;;;;;;5006652;28;19959;-79
2022/04/03 15:59:15;;;;;;;;;;;6.90;90.30;;;;;;4989023;28;20037;-80
2022/04/03 16:01:42;;;;;;;21.80;11.48;;;6.90;88.40;;;;;;5006103;28;20400;-80
2022/04/03 16:04:08;;;;;;;21.73;13.95;;;6.90;85.10;;;;;;4988807;28;20048;-79
2022/04/03 16:06:33;;;;;;;;;;;6.80;83.80;;;;;;5006471;28;20026;-79
2022/04/03 16:08:59;;;;;;;43.15;20.08;;;6.80;86.60;;;;;;5006327;28;19909;-80
2022/04/03 16:11:25;;;;;;;;;;;6.80;88.70;;;;;;5006784;28;20528;-76
2022/04/03 16:13:51;;;;;;;36.95;19.52;;;6.70;90.70;;;;;;5006419;28;19956;-77
2022/04/03 16:16:17;;;;;;;;;;;6.70;90.40;;;;;;5006137;28;20060;-79
2022/04/03 16:18:43;;;;;;;32.58;18.90;;;6.70;84.00;;;;;;4988603;28;20326;-79
2022/04/03 16:21:10;;;;;;;22.58;16.58;;;6.70;84.50;;;;;;5006675;28;20034;-77
2022/04/03 16:23:36;;;;;;;31.00;18.20;;;6.60;88.00;;;;;;5004281;28;20022;-78
2022/04/03 16:26:02;;;;;;;;;;;6.60;86.30;;;;;;5006653;28;20044;-78
2022/04/03 16:28:28;;;;;;;17.15;10.88;;;6.50;90.10;;;;;;4988515;28;19913;-79
2022/04/03 16:30:54;;;;;;;17.20;9.82;;;6.50;90.30;;;;;;5006223;28;20096;-80
2022/04/03 16:33:20;;;;;;;;;;;6.50;91.40;;;;;;5010816;28;20026;-79
2022/04/03 16:35:45;;;;;;;16.05;9.50;;;6.50;92.70;;;;;;4992064;28;19948;-77
2022/04/03 16:38:14;;;;;;;;;;;6.40;94.60;;;;;;5010568;28;20489;-78
2022/04/03 16:40:43;;;;;;;21.60;9.50;;;6.40;94.90;;;;;;5009358;28;20007;-78
2022/04/03 16:43:10;;;;;;;14.75;9.32;;;6.30;95.70;;;;;;5009550;28;20772;-79
2022/04/03 16:45:36;;;;;;;14.15;9.45;;;6.30;96.60;;;;;;4992271;28;20564;-80
2022/04/03 16:48:02;;;;;;;;;;;6.20;97.70;;;;;;4992193;28;20021;-79
2022/04/03 16:50:28;;;;;;;13.07;9.10;;;6.10;98.80;;;;;;4992023;28;19920;-79
2022/04/03 16:52:54;;;;;;;15.27;8.73;;;6.00;98.50;;;;;;4991629;28;20576;-79
2022/04/03 16:55:20;;;;;;;;;;;6.00;98.10;;;;;;4992791;28;20018;-79
2022/04/03 16:57:46;;;;;;;11.95;7.60;;;5.90;99.10;;;;;;5009482;28;20296;-77
2022/04/03 17:00:13;;;;;;;16.15;9.02;;;5.80;99.70;;;;;;5010056;28;20026;-79
2022/04/03 17:02:39;;;;;;;10.85;7.63;;;5.80;98.50;;;;;;4995466;28;20030;-78
2022/04/03 17:05:06;;;;;;;14.75;8.30;;;5.70;96.70;;;;;;5009218;28;20149;-79
2022/04/03 17:07:36;;;;;;;14.63;8.00;;;5.60;94.60;;;;;;4992071;28;20030;-79
2022/04/03 17:10:07;;;;;;;11.07;7.38;;;5.60;93.00;;;;;;4991460;28;20040;-78
2022/04/03 17:12:34;;;;;;;15.38;7.82;;;5.50;93.30;;;;;;5009298;28;20014;-77
2022/04/03 17:15:01;;;;;;;14.82;7.50;;;5.50;94.90;;;;;;5009641;28;20402;-78
2022/04/03 17:17:28;;;;;;;13.20;8.05;;;5.40;94.20;;;;;;5008957;28;20036;-79
2022/04/03 17:19:53;;;;;;;12.73;7.35;;;5.30;94.70;;;;;;5009146;28;20030;-78
2022/04/03 17:22:19;;;;;;;;;;;5.30;95.50;;;;;;4991720;28;20041;-77
2022/04/03 17:24:46;;;;;;;13.38;7.70;;;5.20;96.30;;;;;;5008585;28;19909;-78
2022/04/03 17:27:13;;;;;;;19.05;8.65;;;5.20;96.60;;;;;;5008984;28;20133;-79
2022/04/03 17:29:42;;;;;;;13.50;8.75;;;5.20;97.40;;;;;;4991248;28;20037;-79
2022/04/03 17:32:11;;;;;;;15.82;9.75;;;5.20;97.70;;;;;;4991127;28;20149;-78
2022/04/03 17:34:38;;;;;;;15.90;8.45;;;5.10;98.70;;;;;;5007548;28;20212;-78
2022/04/03 17:37:04;;;;;;;14.90;8.40;;;5.00;98.10;;;;;;4991518;28;20528;-78
2022/04/03 17:39:30;;;;;;;16.42;8.77;;;5.00;94.90;;;;;;4991650;28;20026;-79
2022/04/03 17:41:56;;;;;;;;;;;5.00;92.10;;;;;;5007384;28;20046;-79
2022/04/03 17:44:23;;;;;;;20.52;10.18;;;5.00;91.70;;;;;;4991085;28;19916;-79
2022/04/03 17:46:52;;;;;;;18.77;10.77;;;4.90;93.00;;;;;;4990382;28;20405;-79
2022/04/03 17:49:19;;;;;;;27.25;11.13;;;4.90;95.10;;;;;;5006832;28;20092;-78
2022/04/03 17:51:46;;;;;;;15.02;8.75;;;4.80;95.30;;;;;;5007925;28;20121;-78
2022/04/03 17:54:11;;;;;;;15.90;9.68;;;4.70;94.00;;;;;;5008386;28;20030;-78
2022/04/03 17:56:37;;;;;;;;;;;4.70;95.40;;;;;;4990759;28;20391;-78
2022/04/03 17:59:03;;;;;;;14.73;8.25;;;4.60;94.70;;;;;;5008200;28;19909;-78
2022/04/03 18:01:28;;;;;;;;;;;4.40;91.20;;;;;;4991037;28;20034;-78
2022/04/03 18:03:54;;;;;;;21.00;11.13;;;4.40;90.80;;;;;;5008360;28;19906;-80
2022/04/03 18:06:19;;;;;;;;;;;4.30;90.60;;;;;;5007047;28;20030;-80
2022/04/03 18:08:45;;;;;;;20.77;10.15;;;4.20;90.70;;;;;;5007620;28;20301;-78
2022/04/03 18:11:16;;;;;;;;;;;4.10;91.10;;;;;;5008484;28;20470;-79